Time;durP1;ratioP1;P1;durP2;ratioP2;P2;SDS_P1;SDS_P2;PMS_P1;PMS_P2;Temp;Humidity;BMP_temperature;BMP_pressure;BME280_temperature;BME280_humidity;BME280_pressure;Samples;Min_cycle;Max_cycle;Signal;HPM_P1;HPM_P2
2023/09/16 00:01:37;;;;;;;9.60;6.35;;;15.20;99.90;;;;;;5026188;28;20767;-57
2023/09/16 00:04:03;;;;;;;11.02;6.60;;;15.10;99.90;;;;;;5024040;28;20124;-57
2023/09/16 00:06:29;;;;;;;9.50;5.95;;;15.20;99.90;;;;;;5032860;28;20092;-58
2023/09/16 00:08:55;;;;;;;8.98;6.28;;;15.20;99.90;;;;;;5022395;28;20037;-58
2023/09/16 00:11:21;;;;;;;10.00;6.47;;;15.20;99.90;;;;;;5024531;28;20515;-56
2023/09/16 00:13:47;;;;;;;10.50;6.70;;;15.30;99.90;;;;;;5037417;28;20779;-58
2023/09/16 00:16:15;;;;;;;10.57;6.63;;;15.30;99.90;;;;;;5027623;28;20037;-57
2023/09/16 00:18:41;;;;;;;9.23;6.28;;;15.40;99.90;;;;;;5025241;28;20041;-56
2023/09/16 00:21:06;;;;;;;8.25;5.57;;;15.30;99.90;;;;;;5023853;28;20029;-58
2023/09/16 00:23:32;;;;;;;8.95;6.13;;;15.40;99.90;;;;;;5024829;28;20041;-57
2023/09/16 00:25:58;;;;;;;11.50;5.90;;;15.40;99.90;;;;;;5024514;28;20032;-58
2023/09/16 00:28:25;;;;;;;8.77;5.43;;;15.20;99.90;;;;;;5026218;28;20057;-57
2023/09/16 00:30:51;;;;;;;8.32;5.68;;;15.30;99.90;;;;;;5032013;28;20052;-57
2023/09/16 00:33:16;;;;;;;9.98;5.68;;;15.50;99.90;;;;;;5023360;28;20080;-57
2023/09/16 00:35:42;;;;;;;6.90;4.95;;;14.50;99.90;;;;;;5029922;28;20061;-57
2023/09/16 00:38:09;;;;;;;7.80;5.60;;;15.00;99.90;;;;;;5024593;28;20025;-58
2023/09/16 00:40:36;;;;;;;10.48;6.25;;;15.00;99.90;;;;;;4987692;28;1052636;-58
2023/09/16 00:43:01;;;;;;;11.75;5.75;;;15.00;99.90;;;;;;5022227;28;20056;-57
2023/09/16 00:45:27;;;;;;;9.07;6.10;;;15.20;99.90;;;;;;5026039;28;20116;-57
2023/09/16 00:47:53;;;;;;;9.50;5.70;;;15.40;99.90;;;;;;5025846;28;21338;-58
2023/09/16 00:50:19;;;;;;;9.88;5.85;;;15.30;99.90;;;;;;5024350;28;20068;-58
2023/09/16 00:52:56;;;;;;;8.80;5.85;;;15.20;99.90;;;;;;5024313;28;20124;-57
2023/09/16 00:55:23;;;;;;;14.38;6.20;;;15.00;99.90;;;;;;5025038;28;20041;-57
2023/09/16 00:57:52;;;;;;;9.25;6.10;;;15.10;99.90;;;;;;5025215;28;20033;-58
2023/09/16 01:00:18;;;;;;;10.82;5.93;;;15.30;99.90;;;;;;5023907;28;20480;-58
2023/09/16 01:02:44;;;;;;;11.32;6.63;;;15.30;99.90;;;;;;5024945;28;20034;-57
2023/09/16 01:05:17;;;;;;;10.38;6.72;;;15.30;99.90;;;;;;5023594;28;20095;-57
2023/09/16 01:07:45;;;;;;;9.30;6.30;;;15.30;99.90;;;;;;5023121;28;20453;-57
2023/09/16 01:10:12;;;;;;;11.55;6.53;;;15.20;99.90;;;;;;5020285;28;20069;-58
2023/09/16 01:12:38;;;;;;;11.27;6.32;;;15.30;99.90;;;;;;5023131;28;20037;-57
2023/09/16 01:15:06;;;;;;;8.98;6.57;;;15.30;99.90;;;;;;5025758;28;20091;-58
2023/09/16 01:17:36;;;;;;;11.07;5.63;;;15.40;99.90;;;;;;5031895;28;20470;-57
2023/09/16 01:20:10;;;;;;;8.43;5.60;;;15.10;99.90;;;;;;5024018;28;20037;-57
2023/09/16 01:22:38;;;;;;;7.97;5.78;;;15.10;99.90;;;;;;5021563;28;20132;-57
2023/09/16 01:25:05;;;;;;;9.10;5.93;;;15.10;99.90;;;;;;5021464;28;20030;-57
2023/09/16 01:27:31;;;;;;;9.07;6.28;;;15.10;99.90;;;;;;5027809;28;20132;-56
2023/09/16 01:29:57;;;;;;;11.77;6.38;;;15.10;99.90;;;;;;5023369;28;20030;-57
2023/09/16 01:32:31;;;;;;;9.23;6.00;;;15.30;99.90;;;;;;5031393;28;20030;-58
2023/09/16 01:34:59;;;;;;;;;;;15.30;99.90;;;;;;5029519;28;20021;-57
2023/09/16 01:37:25;;;;;;;9.88;6.35;;;15.10;99.90;;;;;;5023793;28;19928;-57
2023/09/16 01:39:59;;;;;;;8.65;5.68;;;15.10;99.90;;;;;;5023620;28;20040;-57
2023/09/16 01:42:29;;;;;;;8.00;5.97;;;15.00;99.90;;;;;;5024276;28;20083;-58
2023/09/16 01:44:55;;;;;;;13.45;5.53;;;15.00;99.90;;;;;;5022856;28;20503;-57
2023/09/16 01:47:21;;;;;;;9.20;6.18;;;15.00;99.90;;;;;;5024537;28;20025;-57
2023/09/16 01:49:47;;;;;;;9.68;5.80;;;15.10;99.90;;;;;;5027284;28;20059;-57
2023/09/16 01:52:12;;;;;;;10.85;5.35;;;15.10;99.90;;;;;;5028257;28;20061;-58
2023/09/16 01:54:38;;;;;;;7.70;5.40;;;15.00;99.90;;;;;;5027490;28;20037;-57
2023/09/16 01:57:04;;;;;;;7.45;5.03;;;15.00;99.90;;;;;;5058601;28;20040;-58
2023/09/16 01:59:29;;;;;;;7.97;5.60;;;14.90;99.90;;;;;;5022005;28;20050;-56
2023/09/16 02:01:55;;;;;;;8.18;5.47;;;14.90;99.90;;;;;;5026917;28;20424;-57
2023/09/16 02:04:20;;;;;;;9.45;5.45;;;15.00;99.90;;;;;;5024063;28;20844;-58
2023/09/16 02:06:46;;;;;;;8.32;5.50;;;15.00;99.90;;;;;;5024296;28;20361;-57
2023/09/16 02:09:13;;;;;;;9.13;5.90;;;15.10;99.90;;;;;;5022191;28;20405;-58
2023/09/16 02:11:39;;;;;;;12.35;5.50;;;15.10;99.90;;;;;;5019504;28;20034;-57
2023/09/16 02:14:05;;;;;;;8.93;5.80;;;15.00;99.90;;;;;;5026958;28;20030;-58
2023/09/16 02:16:31;;;;;;;9.55;5.70;;;15.00;99.90;;;;;;5023812;28;20025;-57
2023/09/16 02:18:57;;;;;;;7.85;5.30;;;14.90;99.90;;;;;;5024056;28;20475;-58
2023/09/16 02:21:22;;;;;;;10.52;5.50;;;14.90;99.90;;;;;;5022367;28;20034;-57
2023/09/16 02:23:48;;;;;;;9.82;5.53;;;15.00;99.90;;;;;;5027359;28;20030;-58
2023/09/16 02:26:14;;;;;;;8.18;5.65;;;14.90;99.90;;;;;;5024937;28;20460;-57
2023/09/16 02:28:40;;;;;;;10.05;6.00;;;14.80;99.90;;;;;;5022935;28;20119;-58
2023/09/16 02:31:09;;;;;;;10.23;5.95;;;14.80;99.90;;;;;;5023649;28;20402;-57
2023/09/16 02:33:37;;;;;;;9.13;5.72;;;14.80;99.90;;;;;;5024669;28;20492;-57
2023/09/16 02:36:04;;;;;;;7.82;5.53;;;14.80;99.90;;;;;;5027394;28;20033;-56
2023/09/16 02:38:30;;;;;;;8.82;5.78;;;14.80;99.90;;;;;;5021553;28;20036;-57
2023/09/16 02:40:55;;;;;;;9.98;6.05;;;14.90;99.90;;;;;;5021845;28;20462;-57
2023/09/16 02:43:21;;;;;;;6.82;5.43;;;14.80;99.90;;;;;;5020921;28;20129;-57
2023/09/16 02:45:47;;;;;;;9.35;5.70;;;14.70;99.90;;;;;;5024209;28;20033;-58
2023/09/16 02:48:17;;;;;;;7.38;5.50;;;14.70;99.90;;;;;;5024608;28;20030;-57
2023/09/16 02:50:46;;;;;;;10.00;6.03;;;14.60;99.90;;;;;;5023811;28;20029;-58
2023/09/16 02:53:11;;;;;;;11.05;5.93;;;14.70;99.90;;;;;;5021764;28;20454;-57
2023/09/16 02:55:37;;;;;;;9.13;6.30;;;14.70;99.90;;;;;;5023631;28;20021;-57
2023/09/16 02:58:03;;;;;;;9.10;5.88;;;14.60;99.90;;;;;;5026584;28;20045;-57
2023/09/16 03:00:29;;;;;;;8.00;6.00;;;14.60;99.90;;;;;;5023146;28;20033;-57
2023/09/16 03:02:55;;;;;;;9.50;5.35;;;14.70;99.90;;;;;;5023452;28;20052;-57
2023/09/16 03:05:21;;;;;;;8.75;6.25;;;14.60;99.90;;;;;;5026316;28;20973;-57
2023/09/16 03:07:46;;;;;;;8.60;5.63;;;14.70;99.90;;;;;;5031541;28;20033;-57
2023/09/16 03:10:12;;;;;;;12.85;6.47;;;14.60;99.90;;;;;;5020971;28;20124;-57
2023/09/16 03:12:38;;;;;;;11.93;6.28;;;14.60;99.90;;;;;;5022503;28;20041;-58
2023/09/16 03:15:04;;;;;;;9.35;6.47;;;14.60;99.90;;;;;;5023197;28;20697;-57
2023/09/16 03:17:30;;;;;;;9.98;6.20;;;14.70;99.90;;;;;;5023279;28;20444;-57
2023/09/16 03:19:56;;;;;;;11.13;6.55;;;14.70;99.90;;;;;;5020985;28;20124;-58
2023/09/16 03:22:22;;;;;;;11.25;6.60;;;14.70;99.90;;;;;;5022658;28;20390;-58
2023/09/16 03:24:48;;;;;;;11.18;6.50;;;14.60;99.90;;;;;;5027879;28;20155;-57
2023/09/16 03:27:13;;;;;;;10.82;6.13;;;14.60;99.90;;;;;;5027753;28;20172;-56
2023/09/16 03:29:39;;;;;;;8.75;5.63;;;14.50;99.90;;;;;;5023922;28;20026;-58
2023/09/16 03:32:05;;;;;;;8.90;5.57;;;14.50;99.90;;;;;;5022253;28;20129;-57
2023/09/16 03:34:30;;;;;;;9.02;5.85;;;14.40;99.90;;;;;;5024784;28;20032;-58
2023/09/16 03:36:56;;;;;;;7.50;5.90;;;14.40;99.90;;;;;;5020524;28;20041;-58
2023/09/16 03:39:22;;;;;;;10.40;6.07;;;;;;;;;;5025320;28;20487;-57
2023/09/16 03:41:48;;;;;;;8.32;6.18;;;14.50;99.90;;;;;;5024770;28;20120;-57
2023/09/16 03:44:14;;;;;;;8.05;6.50;;;14.40;99.90;;;;;;5026250;28;20176;-58
2023/09/16 03:46:40;;;;;;;8.50;6.18;;;14.30;99.90;;;;;;5020182;28;20045;-56
2023/09/16 03:49:05;;;;;;;9.27;6.03;;;14.30;99.90;;;;;;5018250;28;20061;-57
2023/09/16 03:51:33;;;;;;;10.38;6.18;;;14.40;99.90;;;;;;5026389;28;20059;-57
2023/09/16 03:53:59;;;;;;;7.80;5.75;;;14.30;99.90;;;;;;5014248;28;20091;-57
2023/09/16 03:56:24;;;;;;;14.38;6.50;;;14.30;99.90;;;;;;5009641;28;21723;-58
2023/09/16 03:58:50;;;;;;;10.90;5.97;;;14.30;99.90;;;;;;4994844;28;20049;-58
2023/09/16 04:01:15;;;;;;;12.70;6.40;;;14.20;99.90;;;;;;5006626;28;20168;-57
2023/09/16 04:03:42;;;;;;;7.35;5.68;;;14.30;99.90;;;;;;5006136;28;20478;-58
2023/09/16 04:06:07;;;;;;;8.15;5.93;;;14.40;99.90;;;;;;5004413;28;20042;-57
2023/09/16 04:08:33;;;;;;;7.85;5.68;;;15.90;99.90;;;;;;5004878;28;20040;-58
2023/09/16 04:10:59;;;;;;;9.90;6.47;;;15.50;99.90;;;;;;5015257;28;20049;-57
2023/09/16 04:13:24;;;;;;;9.98;6.47;;;14.20;99.90;;;;;;5002516;28;20041;-57
2023/09/16 04:15:50;;;;;;;7.70;6.07;;;14.30;99.90;;;;;;5018167;28;20056;-58
2023/09/16 04:18:16;;;;;;;8.73;6.20;;;14.30;99.90;;;;;;5024397;28;20190;-58
2023/09/16 04:20:43;;;;;;;8.85;6.28;;;14.50;99.90;;;;;;5024660;28;20029;-58
2023/09/16 04:23:09;;;;;;;13.40;6.90;;;14.30;99.90;;;;;;5023139;28;20120;-57
2023/09/16 04:25:35;;;;;;;10.63;6.25;;;14.40;99.90;;;;;;5032823;28;20026;-58
2023/09/16 04:28:02;;;;;;;9.73;6.55;;;14.40;99.90;;;;;;5027093;28;20107;-57
2023/09/16 04:30:27;;;;;;;12.10;6.07;;;14.40;99.90;;;;;;5028560;28;20496;-58
2023/09/16 04:32:54;;;;;;;9.00;6.10;;;14.50;99.90;;;;;;5025430;28;20068;-57
2023/09/16 04:35:20;;;;;;;9.50;6.15;;;14.50;99.90;;;;;;5024463;28;20324;-57
2023/09/16 04:37:46;;;;;;;7.47;5.97;;;14.50;99.90;;;;;;5030394;28;20308;-57
2023/09/16 04:40:11;;;;;;;7.97;5.63;;;14.50;99.90;;;;;;5021514;28;20449;-58
2023/09/16 04:42:38;;;;;;;10.52;5.90;;;14.60;99.90;;;;;;5032020;28;20029;-58
2023/09/16 04:45:05;;;;;;;12.07;6.30;;;14.50;99.90;;;;;;5022284;28;20034;-57
2023/09/16 04:47:31;;;;;;;9.95;6.47;;;14.60;99.90;;;;;;5026436;28;20030;-58
2023/09/16 04:49:57;;;;;;;8.32;5.55;;;14.50;99.90;;;;;;5024706;28;20084;-57
2023/09/16 04:52:25;;;;;;;7.57;5.60;;;14.60;99.90;;;;;;5024836;28;20025;-58
2023/09/16 04:54:53;;;;;;;8.48;6.03;;;14.60;99.90;;;;;;5027453;28;20025;-57
2023/09/16 04:57:22;;;;;;;8.98;6.22;;;14.40;99.90;;;;;;5021043;28;20871;-58
2023/09/16 04:59:47;;;;;;;9.77;6.28;;;15.00;99.90;;;;;;5020521;28;20051;-58
2023/09/16 05:02:13;;;;;;;9.88;6.43;;;14.40;99.90;;;;;;5025019;28;20128;-57
2023/09/16 05:04:39;;;;;;;8.70;6.18;;;14.00;99.90;;;;;;5018003;28;20033;-57
2023/09/16 05:07:05;;;;;;;10.68;6.40;;;14.40;99.90;;;;;;5026422;28;20025;-57
2023/09/16 05:09:31;;;;;;;9.25;6.10;;;14.00;99.90;;;;;;5024454;28;20029;-57
2023/09/16 05:11:57;;;;;;;11.20;6.70;;;14.40;99.90;;;;;;5026170;28;20116;-58
2023/09/16 05:14:24;;;;;;;13.40;7.35;;;14.40;99.90;;;;;;5025608;28;20120;-56
2023/09/16 05:16:50;;;;;;;11.65;6.78;;;;;;;;;;5026618;28;20030;-57
2023/09/16 05:19:16;;;;;;;12.70;7.20;;;14.00;99.90;;;;;;5010371;28;20113;-57
2023/09/16 05:21:42;;;;;;;8.88;6.95;;;;;;;;;;5005868;28;20058;-57
2023/09/16 05:24:09;;;;;;;11.30;7.50;;;;;;;;;;5024839;28;20521;-58
2023/09/16 05:26:36;;;;;;;10.00;7.05;;;;;;;;;;5015536;28;20219;-57
2023/09/16 05:29:01;;;;;;;11.55;6.28;;;14.20;99.90;;;;;;5025279;28;20559;-58
2023/09/16 05:31:29;;;;;;;11.48;6.65;;;;;;;;;;5028213;28;20041;-58
2023/09/16 05:33:57;;;;;;;11.48;6.63;;;;;;;;;;5022864;28;20030;-58
2023/09/16 05:36:24;;;;;;;10.63;7.20;;;14.00;99.90;;;;;;5027722;28;20072;-57
2023/09/16 05:38:49;;;;;;;12.77;6.68;;;14.30;99.90;;;;;;5025051;28;20102;-58
2023/09/16 05:41:15;;;;;;;13.43;6.32;;;14.20;99.90;;;;;;5024411;28;20392;-57
2023/09/16 05:43:40;;;;;;;11.05;6.85;;;14.20;99.90;;;;;;5025007;28;20850;-57
2023/09/16 05:46:06;;;;;;;9.98;6.75;;;14.30;99.90;;;;;;5025271;28;20079;-58
2023/09/16 05:48:32;;;;;;;9.32;6.78;;;14.40;99.90;;;;;;5025358;28;20383;-58
2023/09/16 05:50:58;;;;;;;13.75;7.50;;;14.40;99.90;;;;;;5029094;28;20474;-56
2023/09/16 05:53:25;;;;;;;11.80;7.90;;;14.30;99.90;;;;;;5026648;28;20033;-57
2023/09/16 05:55:51;;;;;;;10.75;6.70;;;14.60;99.90;;;;;;5021208;28;20091;-57
2023/09/16 05:58:17;;;;;;;11.20;7.38;;;14.60;99.90;;;;;;5018302;28;20049;-58
2023/09/16 06:00:43;;;;;;;11.15;7.13;;;14.50;99.90;;;;;;5023599;28;20156;-57
2023/09/16 06:03:09;;;;;;;12.35;8.60;;;14.40;99.90;;;;;;5020795;28;20041;-58
2023/09/16 06:05:34;;;;;;;9.13;7.35;;;14.60;99.90;;;;;;5021549;28;20036;-57
2023/09/16 06:08:00;;;;;;;13.90;8.98;;;14.70;99.90;;;;;;5022984;28;20346;-57
2023/09/16 06:10:26;;;;;;;17.08;9.38;;;14.80;99.90;;;;;;5025319;28;20029;-58
2023/09/16 06:12:52;;;;;;;15.43;9.52;;;14.70;99.90;;;;;;5027530;28;20394;-58
2023/09/16 06:15:18;;;;;;;14.00;9.18;;;14.80;99.90;;;;;;5023845;28;20063;-58
2023/09/16 06:17:43;;;;;;;13.25;9.35;;;14.80;99.90;;;;;;5024910;28;20036;-57
2023/09/16 06:20:09;;;;;;;14.35;9.55;;;15.00;99.90;;;;;;5024047;28;20128;-57
2023/09/16 06:22:35;;;;;;;13.70;10.40;;;15.00;99.90;;;;;;5024703;28;20461;-58
2023/09/16 06:25:01;;;;;;;18.33;12.93;;;15.10;99.90;;;;;;5022762;28;20030;-58
2023/09/16 06:27:27;;;;;;;20.45;13.18;;;15.40;99.90;;;;;;5023378;28;20025;-59
2023/09/16 06:29:53;;;;;;;22.30;14.48;;;15.40;99.90;;;;;;5024111;28;20049;-58
2023/09/16 06:32:19;;;;;;;21.45;14.27;;;15.60;99.90;;;;;;5020275;28;20072;-58
2023/09/16 06:34:44;;;;;;;21.58;14.95;;;15.80;99.90;;;;;;5008793;28;20190;-58
2023/09/16 06:37:10;;;;;;;22.63;14.07;;;15.90;99.90;;;;;;5002611;28;20581;-59
2023/09/16 06:39:36;;;;;;;24.90;14.02;;;15.90;99.90;;;;;;5002392;28;20046;-58
2023/09/16 06:42:04;;;;;;;21.05;13.90;;;15.10;99.90;;;;;;5004147;28;20153;-58
2023/09/16 06:44:30;;;;;;;18.58;13.55;;;16.20;99.90;;;;;;5023983;28;20460;-58
2023/09/16 06:46:56;;;;;;;24.38;14.70;;;16.30;99.90;;;;;;5030823;28;20048;-59
2023/09/16 06:49:21;;;;;;;18.55;12.98;;;16.50;99.90;;;;;;5007089;28;20065;-57
2023/09/16 06:51:47;;;;;;;23.17;13.13;;;16.50;99.90;;;;;;5000343;28;20037;-59
2023/09/16 06:54:13;;;;;;;22.90;13.20;;;16.50;99.90;;;;;;5002627;28;20490;-58
2023/09/16 06:56:38;;;;;;;20.40;12.73;;;16.60;99.90;;;;;;5003877;28;20615;-58
2023/09/16 06:59:04;;;;;;;17.27;12.27;;;16.80;99.90;;;;;;4995514;28;20049;-59
2023/09/16 07:01:30;;;;;;;16.92;12.43;;;16.90;99.90;;;;;;5003953;28;20686;-59
2023/09/16 07:03:56;;;;;;;17.27;11.70;;;16.80;99.90;;;;;;5003752;28;20061;-58
2023/09/16 07:06:21;;;;;;;18.15;11.60;;;17.10;99.90;;;;;;4999119;28;20092;-59
2023/09/16 07:08:47;;;;;;;15.80;11.07;;;17.00;99.90;;;;;;5006232;28;20038;-59
2023/09/16 07:11:14;;;;;;;15.98;11.00;;;17.20;99.90;;;;;;5018039;28;20376;-59
2023/09/16 07:13:40;;;;;;;20.00;11.23;;;17.00;99.90;;;;;;5003959;28;20045;-58
2023/09/16 07:16:07;;;;;;;16.13;11.20;;;;;;;;;;5007021;28;20029;-59
2023/09/16 07:18:34;;;;;;;16.30;10.32;;;17.30;99.90;;;;;;5007141;28;20272;-58
2023/09/16 07:20:59;;;;;;;14.80;9.70;;;17.60;99.90;;;;;;5006069;28;20824;-58
2023/09/16 07:23:25;;;;;;;19.75;10.27;;;17.60;99.90;;;;;;5005208;28;20052;-58
2023/09/16 07:25:58;;;;;;;14.85;10.02;;;17.70;99.90;;;;;;5009631;28;20996;-58
2023/09/16 07:28:25;;;;;;;44.85;33.15;;;17.80;99.90;;;;;;5007128;28;20044;-58
2023/09/16 07:30:51;;;;;;;13.30;10.57;;;17.90;99.90;;;;;;5008018;28;20038;-59
2023/09/16 07:33:16;;;;;;;15.02;9.95;;;18.00;99.90;;;;;;5005485;28;20397;-59
2023/09/16 07:35:42;;;;;;;14.95;9.70;;;18.00;99.90;;;;;;5011568;28;20037;-58
2023/09/16 07:38:10;;;;;;;13.93;8.38;;;18.20;99.90;;;;;;5007311;28;20045;-58
2023/09/16 07:40:38;;;;;;;15.13;7.90;;;;;;;;;;5011907;28;20053;-59
2023/09/16 07:43:11;;;;;;;11.15;7.20;;;18.40;99.90;;;;;;5022176;28;20120;-59
2023/09/16 07:45:38;;;;;;;11.02;7.68;;;18.40;99.90;;;;;;5029794;28;20030;-59
2023/09/16 07:48:04;;;;;;;9.27;7.00;;;;;;;;;;5027895;28;20041;-59
2023/09/16 07:50:30;;;;;;;11.70;7.32;;;18.40;99.90;;;;;;5028136;28;20042;-59
2023/09/16 07:52:55;;;;;;;11.70;6.32;;;18.60;99.90;;;;;;5025590;28;20029;-58
2023/09/16 07:55:21;;;;;;;12.35;6.10;;;18.70;99.90;;;;;;5029630;28;20561;-59
2023/09/16 07:57:46;;;;;;;11.07;5.60;;;18.70;99.90;;;;;;5027041;28;20631;-58
2023/09/16 08:00:13;;;;;;;7.65;6.35;;;;;;;;;;5024167;28;20037;-58
2023/09/16 08:02:39;;;;;;;10.88;5.78;;;18.70;99.90;;;;;;5026127;28;20503;-59
2023/09/16 08:05:05;;;;;;;8.93;5.82;;;19.00;99.90;;;;;;5025306;28;20107;-59
2023/09/16 08:07:31;;;;;;;10.30;5.63;;;;;;;;;;5025147;28;20028;-59
2023/09/16 08:09:58;;;;;;;10.90;5.47;;;;;;;;;;5025302;28;20045;-59
2023/09/16 08:12:24;;;;;;;7.22;5.47;;;;;;;;;;5012356;28;20038;-57
2023/09/16 08:14:50;;;;;;;27.85;22.27;;;19.30;99.90;;;;;;5027265;28;20152;-60
2023/09/16 08:17:16;;;;;;;8.63;6.13;;;18.80;99.90;;;;;;5015757;28;20153;-59
2023/09/16 08:19:41;;;;;;;8.13;5.55;;;19.50;99.90;;;;;;4997435;28;20509;-60
2023/09/16 08:22:07;;;;;;;8.32;5.43;;;19.40;99.90;;;;;;5006736;28;20100;-60
2023/09/16 08:24:34;;;;;;;7.40;5.25;;;19.60;99.90;;;;;;5006696;28;20085;-59
2023/09/16 08:27:00;;;;;;;10.88;5.20;;;19.60;99.90;;;;;;5015001;28;20446;-60
2023/09/16 08:29:25;;;;;;;6.88;5.22;;;19.60;99.90;;;;;;5022058;28;20061;-60
2023/09/16 08:31:51;;;;;;;7.22;5.15;;;19.80;99.90;;;;;;5005967;28;20030;-59
2023/09/16 08:34:16;;;;;;;5.57;4.95;;;19.80;99.90;;;;;;5002995;28;20621;-59
2023/09/16 08:36:42;;;;;;;6.63;4.65;;;19.80;99.90;;;;;;5000638;28;20076;-59
2023/09/16 08:39:07;;;;;;;5.85;4.68;;;19.80;99.90;;;;;;4999990;28;20050;-60
2023/09/16 08:41:59;;;;;;;5.18;4.20;;;19.90;99.90;;;;;;4994421;28;20116;-59
2023/09/16 08:44:28;;;;;;;6.38;4.35;;;20.00;99.90;;;;;;5009706;28;20038;-59
2023/09/16 08:47:06;;;;;;;6.85;4.38;;;20.00;99.90;;;;;;5000497;28;20107;-58
2023/09/16 08:49:35;;;;;;;6.15;4.22;;;20.20;99.90;;;;;;5005588;28;20402;-59
2023/09/16 08:52:03;;;;;;;5.57;4.18;;;20.60;99.90;;;;;;5005075;28;20033;-59
2023/09/16 08:54:31;;;;;;;5.63;4.07;;;20.40;99.90;;;;;;5004437;28;20125;-59
2023/09/16 08:56:58;;;;;;;6.85;4.35;;;20.80;99.90;;;;;;5006785;28;20037;-58
2023/09/16 08:59:24;;;;;;;6.43;4.32;;;20.60;99.90;;;;;;5004364;28;20591;-59
2023/09/16 09:01:50;;;;;;;8.05;4.18;;;21.10;99.90;;;;;;5005396;28;20037;-59
2023/09/16 09:04:16;;;;;;;6.30;4.43;;;20.60;99.90;;;;;;5004709;28;20045;-59
2023/09/16 09:06:42;;;;;;;6.18;4.07;;;20.50;99.90;;;;;;5004573;28;20124;-58
2023/09/16 09:09:08;;;;;;;6.50;4.70;;;20.50;99.90;;;;;;5002362;28;20125;-59
2023/09/16 09:11:35;;;;;;;5.05;4.47;;;20.80;99.90;;;;;;5006424;28;20506;-59
2023/09/16 09:14:01;;;;;;;6.30;4.45;;;20.80;99.90;;;;;;5015277;28;20033;-59
2023/09/16 09:16:28;;;;;;;7.25;4.13;;;20.80;99.90;;;;;;4988371;28;20042;-59
2023/09/16 09:18:56;;;;;;;10.27;5.93;;;21.00;99.90;;;;;;5010974;28;20042;-57
2023/09/16 09:21:22;;;;;;;9.43;4.68;;;21.40;99.90;;;;;;5009510;28;20124;-59
2023/09/16 09:23:47;;;;;;;8.38;4.78;;;21.00;99.90;;;;;;5013504;28;20488;-58
2023/09/16 09:26:14;;;;;;;7.07;4.85;;;21.30;99.90;;;;;;5004500;28;20042;-59
2023/09/16 09:28:44;;;;;;;6.05;4.75;;;21.10;99.90;;;;;;5020791;28;20136;-58
2023/09/16 09:31:11;;;;;;;10.07;4.30;;;20.70;99.90;;;;;;5003618;28;20038;-58
2023/09/16 09:33:40;;;;;;;5.95;4.88;;;21.50;99.90;;;;;;4994201;28;20045;-58
2023/09/16 09:36:13;;;;;;;5.63;3.78;;;21.30;99.90;;;;;;5009186;28;20057;-58
2023/09/16 09:38:40;;;;;;;9.60;4.72;;;21.30;99.90;;;;;;5002577;28;20048;-58
2023/09/16 09:41:06;;;;;;;6.57;4.60;;;21.40;99.90;;;;;;5002739;28;20498;-58
2023/09/16 09:43:32;;;;;;;5.93;4.78;;;21.40;99.90;;;;;;5003587;28;20044;-58
2023/09/16 09:45:58;;;;;;;6.47;4.57;;;21.70;99.90;;;;;;5004250;28;20098;-58
2023/09/16 09:48:23;;;;;;;4.47;3.97;;;21.50;99.90;;;;;;4995248;28;20037;-58
2023/09/16 09:50:49;;;;;;;5.25;4.45;;;21.80;99.90;;;;;;5003640;28;20022;-58
2023/09/16 09:53:16;;;;;;;6.68;5.22;;;;;;;;;;5001141;28;20041;-58
2023/09/16 09:55:43;;;;;;;11.40;4.70;;;;;;;;;;5008907;28;20078;-57
2023/09/16 09:58:10;;;;;;;8.07;4.85;;;;;;;;;;5000873;28;20437;-58
2023/09/16 10:00:36;;;;;;;6.47;4.50;;;;;;;;;;5002426;28;20404;-57
2023/09/16 10:03:03;;;;;;;4.82;4.10;;;;;;;;;;5003390;28;20042;-57
2023/09/16 10:05:35;;;;;;;8.65;4.28;;;;;;;;;;5002694;28;20030;-58
2023/09/16 10:08:02;;;;;;;5.18;4.15;;;;;;;;;;5004058;28;20453;-59
2023/09/16 10:10:28;;;;;;;5.38;4.43;;;;;;;;;;5004286;28;20717;-59
2023/09/16 10:12:54;;;;;;;5.57;4.25;;;;;;;;;;5004306;28;20030;-58
2023/09/16 10:15:24;;;;;;;5.38;4.05;;;21.70;99.90;;;;;;5001903;28;20041;-58
2023/09/16 10:17:50;;;;;;;6.05;4.00;;;21.80;99.90;;;;;;5002305;28;20661;-58
2023/09/16 10:20:16;;;;;;;9.60;4.70;;;22.00;99.90;;;;;;5003540;28;20064;-58
2023/09/16 10:22:43;;;;;;;5.97;4.72;;;22.10;99.90;;;;;;5003442;28;20026;-58
2023/09/16 10:25:11;;;;;;;7.35;4.57;;;22.00;99.90;;;;;;5002461;28;20520;-59
2023/09/16 10:27:57;;;;;;;7.88;4.72;;;22.00;99.90;;;;;;5018548;28;20087;-58
2023/09/16 10:30:25;;;;;;;7.00;4.55;;;22.00;99.90;;;;;;4985208;28;20038;-56
2023/09/16 10:32:52;;;;;;;6.63;4.53;;;22.20;99.90;;;;;;5002785;28;20113;-59
2023/09/16 10:35:19;;;;;;;10.48;5.30;;;21.70;99.90;;;;;;5017702;28;20132;-59
2023/09/16 10:37:46;;;;;;;7.10;4.68;;;21.60;99.90;;;;;;5023422;28;21316;-59
2023/09/16 10:40:13;;;;;;;5.43;4.80;;;21.90;99.90;;;;;;5024081;28;20123;-58
2023/09/16 10:42:44;;;;;;;7.65;5.00;;;21.60;99.90;;;;;;5025703;28;20550;-58
2023/09/16 10:45:14;;;;;;;7.60;4.45;;;21.90;99.90;;;;;;5030683;28;20120;-59
2023/09/16 10:47:40;;;;;;;7.53;5.28;;;22.00;99.90;;;;;;5020026;28;20121;-58
2023/09/16 10:50:06;;;;;;;6.97;4.63;;;22.10;99.90;;;;;;5026880;28;20548;-57
2023/09/16 10:52:51;;;;;;;5.53;4.70;;;22.30;99.90;;;;;;5027481;28;20404;-58
2023/09/16 10:55:42;;;;;;;5.85;4.63;;;22.20;99.90;;;;;;5026853;28;20029;-58
2023/09/16 10:58:29;;;;;;;6.20;4.85;;;22.30;99.90;;;;;;5028813;28;20048;-58
2023/09/16 11:00:57;;;;;;;6.50;4.60;;;22.30;99.90;;;;;;5058446;28;20101;-58
2023/09/16 11:03:30;;;;;;;16.17;12.20;;;22.20;99.90;;;;;;5019753;28;20046;-58
2023/09/16 11:05:58;;;;;;;7.87;5.73;;;22.20;99.90;;;;;;5025772;28;20386;-58
2023/09/16 11:08:26;;;;;;;5.78;4.97;;;22.30;99.90;;;;;;5027696;28;20106;-58
2023/09/16 11:10:55;;;;;;;6.93;5.22;;;;;;;;;;5032679;28;20026;-58
2023/09/16 11:13:23;;;;;;;5.78;4.95;;;;;;;;;;5024818;28;22401;-58
2023/09/16 11:15:49;;;;;;;8.25;5.40;;;;;;;;;;5027840;28;20063;-59
2023/09/16 11:18:17;;;;;;;7.55;4.75;;;;;;;;;;5026766;28;20495;-58
2023/09/16 11:20:44;;;;;;;5.88;4.90;;;22.30;99.90;;;;;;5027979;28;20036;-58
2023/09/16 11:23:10;;;;;;;9.70;5.90;;;22.50;99.90;;;;;;5026151;28;20403;-59
2023/09/16 11:25:37;;;;;;;8.43;5.18;;;;;;;;;;5026084;28;20420;-59
2023/09/16 11:28:08;;;;;;;8.75;5.25;;;22.40;99.90;;;;;;5025788;28;20338;-58
2023/09/16 11:30:36;;;;;;;7.43;5.13;;;;;;;;;;5025905;28;20040;-59
2023/09/16 11:33:01;;;;;;;9.55;6.78;;;22.60;99.90;;;;;;5025343;28;20330;-57
2023/09/16 11:35:27;;;;;;;7.50;5.90;;;22.70;99.90;;;;;;5026473;28;20025;-58
2023/09/16 11:37:53;;;;;;;7.18;5.80;;;22.70;99.90;;;;;;5024298;28;20022;-58
2023/09/16 11:40:28;;;;;;;9.43;5.65;;;22.60;99.90;;;;;;5026260;28;20563;-59
2023/09/16 11:42:55;;;;;;;8.77;5.78;;;22.80;99.90;;;;;;5023115;28;20026;-58
2023/09/16 11:45:22;;;;;;;8.55;6.03;;;22.70;99.90;;;;;;5024549;28;20029;-59
2023/09/16 11:47:49;;;;;;;10.02;6.15;;;22.80;99.90;;;;;;5026780;28;20081;-59
2023/09/16 11:50:22;;;;;;;8.43;6.90;;;22.60;99.90;;;;;;5024047;28;20518;-58
2023/09/16 11:52:48;;;;;;;7.10;6.22;;;22.90;99.90;;;;;;5024943;28;20485;-57
2023/09/16 11:55:16;;;;;;;9.55;6.95;;;;;;;;;;5024024;28;20033;-58
2023/09/16 11:57:42;;;;;;;6.13;5.53;;;22.80;99.90;;;;;;5026871;28;20133;-58
2023/09/16 12:00:09;;;;;;;7.45;5.95;;;23.10;99.90;;;;;;5022466;28;20332;-59
2023/09/16 12:02:35;;;;;;;6.53;5.88;;;23.00;99.90;;;;;;5018698;28;20059;-59
2023/09/16 12:05:03;;;;;;;7.90;5.95;;;23.00;99.90;;;;;;5016593;28;20040;-58
2023/09/16 12:07:30;;;;;;;8.30;5.65;;;;;;;;;;5008114;28;20025;-58
2023/09/16 12:09:56;;;;;;;10.20;6.60;;;;;;;;;;5009772;28;20026;-58
2023/09/16 12:12:22;;;;;;;7.80;6.30;;;;;;;;;;5003589;28;20038;-58
2023/09/16 12:14:48;;;;;;;8.15;6.15;;;;;;;;;;5006342;28;20612;-58
2023/09/16 12:17:15;;;;;;;6.95;6.03;;;;;;;;;;4993606;28;20414;-59
2023/09/16 12:19:51;;;;;;;10.38;5.53;;;;;;;;;;5005113;28;20037;-58
2023/09/16 12:22:17;;;;;;;6.63;5.30;;;;;;;;;;5005275;28;20034;-58
2023/09/16 12:24:43;;;;;;;5.93;5.22;;;;;;;;;;5003830;28;20444;-56
2023/09/16 12:27:09;;;;;;;8.45;6.25;;;;;;;;;;5006095;28;20041;-57
2023/09/16 12:29:35;;;;;;;6.93;5.88;;;;;;;;;;5002921;28;20117;-58
2023/09/16 12:32:11;;;;;;;8.52;5.30;;;;;;;;;;5004922;28;20096;-59
2023/09/16 12:34:37;;;;;;;8.25;5.90;;;;;;;;;;5005242;28;20049;-59
2023/09/16 12:37:03;;;;;;;7.75;6.25;;;;;;;;;;5004157;28;20125;-58
2023/09/16 12:39:36;;;;;;;10.30;6.20;;;;;;;;;;5002801;28;20092;-58
2023/09/16 12:42:03;;;;;;;11.38;7.32;;;;;;;;;;5013219;28;20052;-57
2023/09/16 12:44:30;;;;;;;8.18;6.13;;;;;;;;;;5008698;28;20037;-59
2023/09/16 12:46:57;;;;;;;7.15;6.00;;;;;;;;;;5001696;28;20030;-58
2023/09/16 12:49:24;;;;;;;6.30;5.70;;;;;;;;;;5004180;28;20037;-57
2023/09/16 12:51:50;;;;;;;6.80;5.78;;;;;;;;;;5002339;28;20034;-59
2023/09/16 12:54:16;;;;;;;6.53;5.65;;;;;;;;;;5007254;28;20040;-59
2023/09/16 12:56:49;;;;;;;6.47;5.88;;;;;;;;;;5005976;28;20026;-59